^^
Grace C. Lehan Memorial Weather Station Historical Data
Daily Summary for April 2, 2021 Units:  English    Metric   Both
Daily Weekly Monthly Yearly
  High: Low: Average:
Temperature: 59.7 °F 36 °F 48.5 °F
Dew Point: 51.2 °F 29.9 °F 43.2 °F
Humidity: 96% 65.9% 83%
Wind Speed: 16mph 0mph 1.1mph
Wind Gust: 29mph - -
Wind- - SW
Pressure: 30.05 in 29.45 in -
Precipitation: 0.12 in    
 
 
Tabular Data for April 2, 2021
Time Temperature Dew Point Pressure Wind Wind Speed Wind Gust Humidity Rainfall Rate (Hourly) solar
00:04 36.7 °F 30.8 °F 30.05 in Calm     79% 0.00 in 0 W/m2
00:09 36.6 °F 30.7 °F 30.05 in Calm     79% 0.00 in 0 W/m2
00:14 36.5 °F 30.6 °F 30.05 in Calm     79% 0.00 in 0 W/m2
00:19 36.4 °F 30.5 °F 30.05 in Calm     79% 0.00 in 0 W/m2
00:24 36.3 °F 30.4 °F 30.04 in Calm     78.8% 0.00 in 0 W/m2
00:29 36.2 °F 30 °F 30.04 in Calm     78% 0.00 in 0 W/m2
00:34 36.1 °F 30 °F 30.04 in Calm     78% 0.00 in 0 W/m2
00:39 36.1 °F 29.9 °F 30.04 in Calm     78% 0.00 in 0 W/m2
00:44 36 °F 30.1 °F 30.04 in Calm     78.8% 0.00 in 0 W/m2
00:49 36 °F 30.1 °F 30.03 in Calm     79% 0.00 in 0 W/m2
00:54 36 °F 30.1 °F 30.03 in Calm     79% 0.00 in 0 W/m2
00:59 36 °F 30.1 °F 30.03 in Calm     79% 0.00 in 0 W/m2
01:04 36 °F 30.4 °F 30.02 in Calm     80% 0.00 in 0 W/m2
01:09 36.1 °F 30.5 °F 30.03 in Calm     80% 0.00 in 0 W/m2
01:14 36.2 °F 30.6 °F 30.03 in Calm     80% 0.00 in 0 W/m2
01:19 36.2 °F 30.8 °F 30.03 in Calm     80.4% 0.00 in 0 W/m2
01:24 36.2 °F 30.9 °F 30.03 in Calm     81% 0.00 in 0 W/m2
01:29 36.1 °F 30.8 °F 30.03 in Calm     81% 0.00 in 0 W/m2
01:33 36.1 °F 30.7 °F 30.02 in Calm     80.5% 0.00 in 0 W/m2
01:37 36 °F 30.5 °F 30.02 in Calm     80% 0.00 in 0 W/m2
02:00 36.6 °F 31.3 °F 30.01 in Calm     81% 0.00 in 0 W/m2
02:30 37.9 °F 32.3 °F 30.00 in Calm   1 mph 80% 0.00 in 0 W/m2
03:00 38.4 °F 33.1 °F 29.97 in Calm     81% 0.00 in 0 W/m2
03:30 38 °F 33.6 °F 29.95 in Calm     84% 0.00 in 0 W/m2
04:04 38.3 °F 35 °F 29.95 in Calm     87.8% 0.02 in 0 W/m2
04:09 38.4 °F 35.2 °F 29.93 in Calm     88% 0.02 in 0 W/m2
04:14 38.4 °F 35.3 °F 29.92 in Calm     88.4% 0.02 in 0 W/m2
04:19 38.5 °F 35.6 °F 29.92 in Calm     89% 0.02 in 0 W/m2
04:24 38.5 °F 35.6 °F 29.91 in Calm     89% 0.02 in 0 W/m2
04:29 38.5 °F 35.6 °F 29.91 in Calm     89% 0.02 in 0 W/m2
04:34 38.6 °F 35.8 °F 29.91 in Calm     89.4% 0.03 in 0 W/m2
04:39 38.5 °F 35.9 °F 29.91 in Calm     90% 0.03 in 0 W/m2
04:44 38.4 °F 35.7 °F 29.91 in Calm     90% 0.03 in 0 W/m2
04:49 38.3 °F 35.7 °F 29.90 in Calm     90% 0.03 in 0 W/m2
04:54 38.3 °F 35.6 °F 29.91 in Calm     90% 0.03 in 0 W/m2
04:59 38.3 °F 35.9 °F 29.90 in Calm     90.9% 0.03 in 0 W/m2
05:04 38.3 °F 35.9 °F 29.90 in Calm     91% 0.03 in 0 W/m2
05:09 38.3 °F 35.9 °F 29.89 in Calm     91% 0.01 in 0 W/m2
05:14 38.4 °F 36 °F 29.89 in Calm     91% 0.01 in 0 W/m2
05:19 38.5 °F 36.1 °F 29.89 in Calm     91.2% 0.01 in 0 W/m2
05:24 38.6 °F 36.3 °F 29.89 in Calm     91.7% 0.01 in 0 W/m2
05:29 38.7 °F 36.6 °F 29.89 in Calm     92% 0.02 in 0 W/m2
05:34 38.8 °F 36.7 °F 29.88 in Calm     92% 0.02 in 0 W/m2
05:39 38.9 °F 36.8 °F 29.88 in Calm     92% 0.02 in 0 W/m2
05:44 39 °F 36.9 °F 29.88 in Calm     92% 0.02 in 0 W/m2
05:49 39.1 °F 37 °F 29.88 in Calm     92% 0.02 in 0 W/m2
05:54 39.1 °F 37.2 °F 29.87 in Calm     92.7% 0.02 in 0 W/m2
05:59 39.2 °F 37.3 °F 29.88 in Calm     93% 0.02 in 0 W/m2
06:04 39.3 °F 37.4 °F 29.87 in Calm     93% 0.01 in 0 W/m2
06:09 39.4 °F 37.5 °F 29.87 in Calm   1 mph 93% 0.01 in 0 W/m2
06:14 39.5 °F 37.7 °F 29.87 in Calm   1 mph 93% 0.01 in 0 W/m2
06:17 39.6 °F 37.8 °F 29.87 in Calm   1 mph 93% 0.01 in 0 W/m2
06:30 40.2 °F 38.3 °F 29.85 in Calm   1 mph 93% 0.01 in 0 W/m2
07:00 40.6 °F 39 °F 29.84 in Calm     94% 0.00 in 0 W/m2
07:30 41 °F 39.4 °F 29.83 in Calm     94% 0.00 in 4 W/m2
08:04 41.4 °F 39.8 °F 29.83 in Calm     94% 0.01 in 18 W/m2
08:09 41.4 °F 39.9 °F 29.81 in Calm     94% 0.01 in 12 W/m2
08:14 41.6 °F 40 °F 29.80 in Calm     94% 0.01 in 9 W/m2
08:19 41.7 °F 40.1 °F 29.80 in Calm     94% 0.01 in 14 W/m2
08:24 41.8 °F 40.4 °F 29.80 in Calm     94.5% 0.01 in 18 W/m2
08:29 41.9 °F 40.6 °F 29.80 in Calm     95% 0.01 in 21 W/m2
08:34 42 °F 40.7 °F 29.79 in Calm     95% 0.01 in 37 W/m2
08:39 42.2 °F 40.9 °F 29.79 in Calm     95% 0.01 in 37 W/m2
08:44 42.3 °F 41 °F 29.79 in Calm     95% 0.01 in 32 W/m2
08:49 42.4 °F 41.1 °F 29.79 in Calm     95% 0.01 in 30 W/m2
08:54 42.6 °F 41.2 °F 29.79 in Calm     95% 0.01 in 32 W/m2
08:59 42.7 °F 41.4 °F 29.79 in Calm     95% 0.01 in 30 W/m2
09:04 42.9 °F 41.5 °F 29.78 in Calm     95% 0.01 in 76 W/m2
09:09 43.2 °F 41.9 °F 29.78 in Calm     95% 0.00 in 200 W/m2
09:14 43.8 °F 42.5 °F 29.77 in Calm   1 mph 95% 0.00 in 199 W/m2
09:19 44.7 °F 43.5 °F 29.77 in Calm   1 mph 95.4% 0.00 in 225 W/m2
09:24 45.8 °F 44.8 °F 29.77 in West 0.4 mph 3 mph 96% 0.00 in 202 W/m2
09:29 46.7 °F 45.6 °F 29.77 in West 0.7 mph 3 mph 96% 0.00 in 107 W/m2
09:34 47.3 °F 46.2 °F 29.76 in Calm   3 mph 96% 0.00 in 141 W/m2
09:39 47.7 °F 46.7 °F 29.76 in West 0.2 mph 3 mph 96% 0.00 in 155 W/m2
09:44 48.1 °F 47 °F 29.76 in Calm   3 mph 96% 0.00 in 107 W/m2
09:49 48.5 °F 47.4 °F 29.76 in West 0.4 mph 3 mph 96% 0.00 in 127 W/m2
09:54 49 °F 47.9 °F 29.75 in West 1 mph 4 mph 96% 0.00 in 142 W/m2
09:59 49.7 °F 48.6 °F 29.75 in West 0.8 mph 4 mph 96% 0.00 in 185 W/m2
10:04 50.3 °F 49.2 °F 29.75 in WSW 0.9 mph 7 mph 95.8% 0.00 in 283 W/m2
10:09 51.1 °F 49.8 °F 29.74 in SW 2 mph 7 mph 95.2% 0.00 in 299 W/m2
10:14 51.9 °F 50.5 °F 29.74 in SW 2.2 mph 7 mph 94.7% 0.00 in 330 W/m2
10:19 52.8 °F 50.9 °F 29.73 in SSW 2.8 mph 9 mph 93.3% 0.00 in 390 W/m2
10:24 53.8 °F 51.2 °F 29.72 in SW 1.2 mph 9 mph 90.6% 0.00 in 390 W/m2
10:29 54.7 °F 50.8 °F 29.72 in SSW 2.2 mph 9 mph 86.7% 0.00 in 216 W/m2
10:34 55.4 °F 50.7 °F 29.72 in SSW 2.2 mph 9 mph 84.1% 0.00 in 192 W/m2
10:39 55.9 °F 50.4 °F 29.71 in SW 3.4 mph 10 mph 81.7% 0.00 in 301 W/m2
10:44 56.2 °F 50.3 °F 29.71 in SSW 1.9 mph 10 mph 80.5% 0.00 in 301 W/m2
10:49 56.5 °F 50.2 °F 29.70 in SW 2.6 mph 12 mph 79.6% 0.00 in 234 W/m2
10:54 56.5 °F 49.7 °F 29.70 in SW 1.6 mph 12 mph 78% 0.00 in 192 W/m2
10:59 56.5 °F 49.7 °F 29.70 in SW 0.8 mph 12 mph 78% 0.00 in 167 W/m2
11:04 56.5 °F 49.6 °F 29.69 in SW 0.9 mph 12 mph 77.8% 0.00 in 153 W/m2
11:09 56.5 °F 49.5 °F 29.69 in SW 0.2 mph 4 mph 77.4% 0.00 in 179 W/m2
11:14 56.6 °F 49.5 °F 29.68 in SW 0.5 mph 4 mph 77% 0.00 in 135 W/m2
11:19 56.7 °F 49 °F 29.67 in SW 2 mph 11 mph 75.5% 0.00 in 162 W/m2
11:24 56.8 °F 49.1 °F 29.67 in SW 1.6 mph 11 mph 75.3% 0.00 in 153 W/m2
11:29 56.9 °F 49.1 °F 29.67 in SW 1.1 mph 11 mph 75% 0.00 in 148 W/m2
11:34 57.1 °F 49.3 °F 29.67 in WSW 0.5 mph 11 mph 75.3% 0.00 in 172 W/m2
11:39 57.2 °F 49.2 °F 29.67 in SW 2.3 mph 11 mph 74.7% 0.00 in 179 W/m2
11:44 57.3 °F 49 °F 29.66 in SW 2.1 mph 11 mph 73.8% 0.00 in 160 W/m2
11:49 57.3 °F 48.8 °F 29.66 in SW 0.5 mph 11 mph 73.3% 0.00 in 130 W/m2
11:54 57.3 °F 49 °F 29.66 in SW 1.3 mph 11 mph 73.7% 0.00 in 160 W/m2
11:59 57.3 °F 48.9 °F 29.66 in SW 0.7 mph 11 mph 73.5% 0.00 in 186 W/m2
12:09 57.6 °F 49 °F 29.65 in SW 2.2 mph 7 mph 72.8% 0.00 in 313 W/m2
12:14 58 °F 49.2 °F 29.64 in SW 2.4 mph 10 mph 72.6% 0.00 in 272 W/m2
12:19 58.3 °F 49 °F 29.64 in SW 2.2 mph 10 mph 71.2% 0.00 in 272 W/m2
12:24 58.7 °F 49.1 °F 29.63 in SSW 2.1 mph 10 mph 70.3% 0.00 in 192 W/m2
12:29 58.8 °F 48.7 °F 29.63 in SW 1.3 mph 10 mph 69% 0.00 in 165 W/m2
12:34 58.8 °F 49 °F 29.62 in SW 0.9 mph 10 mph 69.9% 0.00 in 431 W/m2
12:39 59.1 °F 49 °F 29.61 in SW 1.2 mph 5 mph 69% 0.00 in 424 W/m2
12:44 59.5 °F 49.2 °F 29.61 in SW 1.3 mph 6 mph 68.5% 0.00 in 248 W/m2
12:49 59.7 °F 48.7 °F 29.61 in SW 1.3 mph 7 mph 67% 0.00 in 162 W/m2
12:54 59.6 °F 48.6 °F 29.61 in SW 2.1 mph 7 mph 67% 0.00 in 135 W/m2
12:59 59.3 °F 48 °F 29.61 in SW 4.2 mph 10 mph 66.2% 0.00 in 90 W/m2
13:04 58.9 °F 47.9 °F 29.61 in SW 2.4 mph 10 mph 66.8% 0.00 in 132 W/m2
13:09 58.7 °F 47.8 °F 29.60 in SW 2.8 mph 11 mph 67% 0.00 in 137 W/m2
13:14 58.6 °F 47.7 °F 29.60 in SW 2 mph 11 mph 67% 0.00 in 141 W/m2
13:19 58.5 °F 47.6 °F 29.60 in SW 0.6 mph 11 mph 67% 0.00 in 137 W/m2
13:24 58.6 °F 47.7 °F 29.59 in WSW 1.8 mph 11 mph 67.1% 0.00 in 114 W/m2
13:29 58.5 °F 47.6 °F 29.59 in SW 2 mph 11 mph 67% 0.00 in 98 W/m2
13:34 58.4 °F 47.4 °F 29.59 in SW 2.8 mph 11 mph 66.7% 0.00 in 91 W/m2
13:39 58.3 °F 46.9 °F 29.58 in SW 3.2 mph 12 mph 65.9% 0.00 in 69 W/m2
13:44 58.1 °F 46.7 °F 29.58 in SW 2.4 mph 12 mph 65.9% 0.00 in 67 W/m2
13:49 57.9 °F 46.7 °F 29.58 in SW 1.5 mph 12 mph 66.4% 0.00 in 69 W/m2
13:54 57.7 °F 46.7 °F 29.58 in SW 0.7 mph 12 mph 66.7% 0.00 in 81 W/m2
13:59 57.6 °F 46.8 °F 29.58 in SW 0.6 mph 12 mph 67% 0.00 in 81 W/m2
14:04 57.6 °F 46.8 °F 29.58 in WSW 0.6 mph 12 mph 67.2% 0.00 in 81 W/m2
14:09 57.6 °F 46.8 °F 29.58 in SW 1.8 mph 9 mph 67.2% 0.00 in 81 W/m2
14:14 57.6 °F 46.7 °F 29.58 in SW 2.4 mph 10 mph 67% 0.00 in 76 W/m2
14:19 57.6 °F 46.6 °F 29.58 in SW 2.5 mph 11 mph 66.6% 0.00 in 62 W/m2
14:24 57.5 °F 46.5 °F 29.58 in SW 2 mph 11 mph 66.5% 0.00 in 42 W/m2
14:29 57.5 °F 47.1 °F 29.58 in SW 1.4 mph 11 mph 68.2% 0.00 in 54 W/m2
14:34 57.3 °F 47.1 °F 29.57 in SW 2.5 mph 11 mph 68.7% 0.00 in 54 W/m2
14:39 57 °F 47.3 °F 29.57 in SW 2.2 mph 9 mph 70% 0.00 in 44 W/m2
14:44 56.7 °F 47.1 °F 29.57 in SW 2.2 mph 11 mph 70% 0.00 in 26 W/m2
14:49 56.5 °F 47 °F 29.57 in SSW 1.1 mph 11 mph 70.5% 0.00 in 25 W/m2
14:54 56.3 °F 47.7 °F 29.57 in South 0.8 mph 11 mph 72.8% 0.00 in 25 W/m2
14:59 56.1 °F 48 °F 29.56 in South 0.7 mph 11 mph 74.1% 0.00 in 26 W/m2
15:04 55.8 °F 48 °F 29.56 in South 0.4 mph 11 mph 75% 0.00 in 35 W/m2
15:09 55.6 °F 47.8 °F 29.56 in South 1.3 mph 5 mph 75% 0.00 in 37 W/m2
15:14 55.5 °F 47.7 °F 29.57 in SSW 0.6 mph 5 mph 75% 0.00 in 25 W/m2
15:19 55.3 °F 47.6 °F 29.57 in SSW 0.6 mph 5 mph 75% 0.00 in 14 W/m2
15:24 55.2 °F 47.7 °F 29.56 in South 1 mph 5 mph 75.8% 0.00 in 74 W/m2
15:29 54.9 °F 47.8 °F 29.55 in South 1.7 mph 5 mph 76.8% 0.00 in 69 W/m2
15:34 54.6 °F 47.6 °F 29.55 in SSE 1.3 mph 5 mph 77.1% 0.00 in 25 W/m2
15:39 54.4 °F 47.7 °F 29.54 in South 1.4 mph 7 mph 78% 0.00 in 11 W/m2
15:44 54.2 °F 47.5 °F 29.54 in SSW 0.8 mph 7 mph 78% 0.00 in 9 W/m2
15:49 54.1 °F 47.4 °F 29.55 in SSW 1.2 mph 7 mph 78% 0.00 in 7 W/m2
15:54 54 °F 47.3 °F 29.55 in SSW 1.2 mph 7 mph 78% 0.00 in 5 W/m2
15:59 53.9 °F 47.1 °F 29.54 in SSW 1.8 mph 7 mph 77.5% 0.00 in 5 W/m2
16:00 53.9 °F 46.9 °F 29.54 in SSW 1 mph 7 mph 77% 0.00 in 5 W/m2
16:09 53.8 °F 46.8 °F 29.54 in SSW 1.7 mph 5 mph 77% 0.00 in 7 W/m2
16:14 53.9 °F 46.9 °F 29.53 in SW 3.3 mph 11 mph 77% 0.00 in 0 W/m2
16:19 53.9 °F 46.9 °F 29.54 in SW 2.2 mph 11 mph 77% 0.00 in 0 W/m2
16:24 53.9 °F 46.9 °F 29.54 in SW 2.1 mph 11 mph 77% 0.00 in 0 W/m2
16:29 53.9 °F 46.9 °F 29.53 in SW 1.7 mph 11 mph 77% 0.00 in 0 W/m2
16:34 53.9 °F 46.6 °F 29.53 in SW 2.2 mph 13 mph 76.3% 0.00 in 0 W/m2
16:39 54 °F 46.6 °F 29.53 in SW 1.1 mph 13 mph 76% 0.00 in 0 W/m2
16:44 54 °F 46.6 °F 29.53 in SW 1.4 mph 13 mph 76% 0.00 in 0 W/m2
16:49 54 °F 46.6 °F 29.53 in SW 0.8 mph 13 mph 76% 0.00 in 0 W/m2
16:54 54.1 °F 46.7 °F 29.53 in SW 1.2 mph 13 mph 76% 0.00 in 0 W/m2
16:59 54.1 °F 46.7 °F 29.53 in SW 0.5 mph 13 mph 76% 0.00 in 0 W/m2
17:04 54 °F 46.6 °F 29.52 in SW 1.5 mph 13 mph 76% 0.00 in 0 W/m2
17:09 53.8 °F 46.5 °F 29.52 in SW 0.3 mph 10 mph 76.1% 0.00 in 0 W/m2
17:14 53.6 °F 46.6 °F 29.52 in WSW 1.3 mph 10 mph 77% 0.00 in 0 W/m2
17:19 53.5 °F 46.7 °F 29.52 in SW 2 mph 10 mph 77.7% 0.00 in 0 W/m2
17:24 53.4 °F 46.8 °F 29.52 in SW 1.1 mph 10 mph 78.2% 0.00 in 0 W/m2
17:29 53.3 °F 47 °F 29.52 in SW 1.6 mph 11 mph 79% 0.00 in 0 W/m2
17:34 53.3 °F 47 °F 29.52 in SW 1 mph 11 mph 79% 0.00 in 0 W/m2
17:39 53.3 °F 47.2 °F 29.52 in SW 0.6 mph 7 mph 79.8% 0.00 in 0 W/m2
17:44 53.2 °F 47.2 °F 29.52 in SW 0.9 mph 7 mph 80% 0.00 in 0 W/m2
17:49 53.1 °F 47.1 °F 29.52 in SW 1 mph 7 mph 80% 0.00 in 0 W/m2
17:54 53 °F 47 °F 29.51 in WSW 0.7 mph 7 mph 80% 0.00 in 0 W/m2
17:59 52.9 °F 47.1 °F 29.51 in SW 2.5 mph 10 mph 80.5% 0.00 in 0 W/m2
18:04 52.9 °F 47.2 °F 29.51 in SW 2.8 mph 10 mph 81% 0.00 in 0 W/m2
18:09 52.9 °F 47.2 °F 29.51 in SW 2.4 mph 9 mph 81% 0.00 in 0 W/m2
18:14 53 °F 47.3 °F 29.51 in SW 1.2 mph 9 mph 81% 0.00 in 0 W/m2
18:19 53 °F 47.3 °F 29.51 in SW 2 mph 10 mph 81% 0.00 in 0 W/m2
18:24 53 °F 47.3 °F 29.50 in SW 1.1 mph 10 mph 81% 0.00 in 0 W/m2
18:29 53 °F 47.3 °F 29.51 in SW 1.2 mph 10 mph 81% 0.00 in 0 W/m2
18:34 53 °F 47.3 °F 29.51 in SW 1.6 mph 10 mph 81% 0.00 in 0 W/m2
18:39 52.9 °F 47.2 °F 29.51 in SW 1.5 mph 8 mph 81% 0.00 in 0 W/m2
18:44 52.7 °F 47.2 °F 29.50 in SW 1 mph 8 mph 81.3% 0.00 in 0 W/m2
18:49 52.6 °F 47.3 °F 29.50 in SW 1 mph 8 mph 82% 0.00 in 0 W/m2
18:54 52.5 °F 47.1 °F 29.50 in SW 0.9 mph 8 mph 82% 0.00 in 0 W/m2
18:59 52.3 °F 47 °F 29.50 in SW 1 mph 8 mph 82% 0.00 in 0 W/m2
19:04 52.1 °F 47.1 °F 29.49 in SW 0.3 mph 8 mph 83% 0.00 in 0 W/m2
19:09 52 °F 47 °F 29.49 in SW 0.6 mph 6 mph 83% 0.00 in 0 W/m2
19:14 51.8 °F 46.9 °F 29.48 in SW 0.8 mph 6 mph 83% 0.00 in 0 W/m2
19:19 51.7 °F 47 °F 29.48 in SW 0.8 mph 6 mph 84% 0.00 in 0 W/m2
19:24 51.6 °F 46.9 °F 29.48 in SW 0.7 mph 6 mph 84% 0.00 in 0 W/m2
19:29 51.5 °F 46.8 °F 29.48 in SW 0.2 mph 6 mph 84% 0.00 in 0 W/m2
19:34 51.4 °F 46.8 °F 29.48 in Calm   6 mph 84% 0.00 in 0 W/m2
19:39 51.3 °F 46.8 °F 29.47 in Calm   1 mph 84.6% 0.00 in 0 W/m2
19:44 51.2 °F 46.8 °F 29.47 in SW 0.1 mph 2 mph 85% 0.00 in 0 W/m2
19:49 51.1 °F 46.8 °F 29.47 in SW 0.3 mph 3 mph 85% 0.00 in 0 W/m2
19:54 51 °F 46.7 °F 29.46 in SW 0.6 mph 4 mph 85% 0.00 in 0 W/m2
19:59 51 °F 46.8 °F 29.46 in SW 0.3 mph 4 mph 85.4% 0.00 in 0 W/m2
20:00 51 °F 47 °F 29.45 in Calm   4 mph 86% 0.00 in 0 W/m2
20:09 51 °F 46.9 °F 29.45 in SW 0.6 mph 4 mph 85.7% 0.00 in 0 W/m2
20:14 51 °F 46.7 °F 29.45 in SW 0.1 mph 4 mph 85% 0.00 in 0 W/m2
20:19 51 °F 46.7 °F 29.45 in SW 0.9 mph 4 mph 85% 0.00 in 0 W/m2
20:24 51 °F 46.7 °F 29.45 in Calm   4 mph 85% 0.00 in 0 W/m2
20:29 51 °F 46.6 °F 29.45 in SW 0.1 mph 4 mph 85% 0.00 in 0 W/m2
20:34 50.9 °F 46.5 °F 29.45 in Calm   4 mph 85% 0.00 in 0 W/m2
20:39 50.8 °F 46.5 °F 29.45 in Calm     85% 0.00 in 0 W/m2
20:44 50.7 °F 46.4 °F 29.45 in Calm     85% 0.00 in 0 W/m2
20:49 50.7 °F 46.3 °F 29.45 in Calm     85% 0.00 in 0 W/m2
20:54 50.6 °F 46.2 °F 29.45 in Calm     85% 0.00 in 0 W/m2
20:59 50.4 °F 46.1 °F 29.45 in Calm     85% 0.00 in 0 W/m2
21:04 50.2 °F 45.9 °F 29.45 in Calm     85% 0.00 in 0 W/m2
21:09 50 °F 45.7 °F 29.46 in Calm     85% 0.00 in 0 W/m2
21:14 49.8 °F 45.5 °F 29.46 in SW 0.3 mph 3 mph 85% 0.00 in 0 W/m2
21:19 49.7 °F 45.4 °F 29.46 in SW 0.1 mph 3 mph 85% 0.00 in 0 W/m2
21:24 49.7 °F 45.3 °F 29.51 in NW 7.6 mph 24 mph 85% 0.00 in 0 W/m2
21:29 49.7 °F 44.1 °F 29.53 in NW 16 mph 29 mph 80.9% 0.00 in 0 W/m2
21:34 49 °F 42 °F 29.54 in NW 12.5 mph 29 mph 76.7% 0.00 in 0 W/m2
21:39 47.9 °F 41.2 °F 29.54 in NW 14.6 mph 25 mph 77.5% 0.00 in 0 W/m2
21:44 46.6 °F 41.1 °F 29.54 in NW 13 mph 25 mph 81.1% 0.02 in 0 W/m2
21:49 45.5 °F 41 °F 29.54 in WNW 9.9 mph 25 mph 84% 0.04 in 0 W/m2
21:54 44.8 °F 40.8 °F 29.54 in WNW 8.9 mph 25 mph 85.6% 0.06 in 0 W/m2
21:59 44.3 °F 40.6 °F 29.53 in WNW 6.8 mph 25 mph 86.9% 0.06 in 0 W/m2
22:04 44 °F 40.7 °F 29.53 in WNW 4.6 mph 25 mph 87.9% 0.07 in 0 W/m2
22:09 43.8 °F 40.7 °F 29.53 in WNW 3.9 mph 14 mph 88.6% 0.07 in 0 W/m2
22:14 43.7 °F 40.7 °F 29.53 in West 2.2 mph 14 mph 89% 0.07 in 0 W/m2
22:19 43.6 °F 40.6 °F 29.53 in WNW 1.2 mph 14 mph 89% 0.07 in 0 W/m2
22:24 43.6 °F 40.7 °F 29.53 in WNW 1 mph 14 mph 89.4% 0.07 in 0 W/m2
22:29 43.6 °F 40.8 °F 29.54 in WNW 0.1 mph 14 mph 90% 0.07 in 0 W/m2
22:34 43.5 °F 40.8 °F 29.54 in Calm   14 mph 90% 0.07 in 0 W/m2
22:39 43.4 °F 40.7 °F 29.54 in Calm     90% 0.07 in 0 W/m2
22:44 43.4 °F 40.7 °F 29.54 in Calm     90% 0.07 in 0 W/m2
22:49 43.3 °F 40.6 °F 29.54 in Calm     90.1% 0.07 in 0 W/m2
22:54 43.3 °F 40.8 °F 29.54 in Calm     91% 0.07 in 0 W/m2
22:59 43.2 °F 40.8 °F 29.54 in Calm     91% 0.07 in 0 W/m2
23:00 43.2 °F 40.8 °F 29.54 in Calm     91% 0.07 in 0 W/m2
23:09 43 °F 40.6 °F 29.54 in Calm     91% 0.01 in 0 W/m2
23:14 42.9 °F 40.4 °F 29.54 in Calm     91% 0.01 in 0 W/m2
23:19 42.8 °F 40.3 °F 29.54 in WNW 0.2 mph 3 mph 91% 0.01 in 0 W/m2
23:24 42.7 °F 40.2 °F 29.54 in WNW 0.1 mph 3 mph 91% 0.01 in 0 W/m2
23:29 42.6 °F 40.2 °F 29.54 in Calm   3 mph 91% 0.01 in 0 W/m2
23:34 42.6 °F 40.1 °F 29.54 in Calm   3 mph 91% 0.01 in 0 W/m2
23:39 42.5 °F 40 °F 29.54 in WNW 0.3 mph 3 mph 91% 0.00 in 0 W/m2
23:44 42.4 °F 39.9 °F 29.54 in WNW 0.3 mph 3 mph 91% 0.00 in 0 W/m2
23:49 42.2 °F 39.8 °F 29.54 in WNW 0.6 mph 6 mph 91% 0.00 in 0 W/m2
23:54 42.1 °F 39.7 °F 29.54 in WNW 0.2 mph 6 mph 91% 0.00 in 0 W/m2
23:59 42.1 °F 39.7 °F 29.54 in West 0.6 mph 6 mph 91% 0.00 in 0 W/m2
Hartford County Weather
Compliments of Weather Underground - 2 mb